createdAt,value
2023-01-27T00:02:06.751Z,1.15
2023-01-27T00:04:34.794Z,1.15
2023-01-27T00:07:02.645Z,1.13
2023-01-27T00:09:30.440Z,1.10
2023-01-27T00:12:21.744Z,1.07
2023-01-27T00:14:49.559Z,1.11
2023-01-27T00:17:17.438Z,1.10
2023-01-27T00:19:45.796Z,1.12
2023-01-27T00:22:32.197Z,1.11
2023-01-27T00:25:00.058Z,1.09
2023-01-27T00:27:28.530Z,1.06
2023-01-27T00:29:56.392Z,1.05
2023-01-27T00:32:42.687Z,1.06
2023-01-27T00:35:10.438Z,1.09
2023-01-27T00:37:38.233Z,1.06
2023-01-27T00:40:06.429Z,1.07
2023-01-27T00:42:34.315Z,1.06
2023-01-27T00:45:20.704Z,1.04
2023-01-27T00:47:54.721Z,1.02
2023-01-27T00:50:22.916Z,0.97
2023-01-27T00:52:50.777Z,0.97
2023-01-27T00:55:19.378Z,0.99
2023-01-27T00:57:47.196Z,0.99
2023-01-27T01:00:16.970Z,1.02
2023-01-27T01:02:45.001Z,1.03
2023-01-27T01:05:12.857Z,1.02
2023-01-27T01:07:40.764Z,1.00
2023-01-27T01:10:09.039Z,0.99
2023-01-27T01:12:36.907Z,1.01
2023-01-27T01:15:07.297Z,1.06
2023-01-27T01:17:35.082Z,1.04
2023-01-27T01:20:02.982Z,1.04
2023-01-27T01:22:31.268Z,1.01
2023-01-27T01:24:59.084Z,1.02
2023-01-27T01:27:31.594Z,1.02
2023-01-27T01:30:02.521Z,0.99
2023-01-27T01:32:30.335Z,1.00
2023-01-27T01:34:58.250Z,0.99
2023-01-27T01:37:26.388Z,1.00
2023-01-27T01:39:58.575Z,1.00
2023-01-27T01:42:46.409Z,1.01
2023-01-27T01:45:35.030Z,0.98
2023-01-27T01:48:06.029Z,0.99
2023-01-27T01:50:34.027Z,0.97
2023-01-27T01:53:02.361Z,0.96
2023-01-27T01:55:30.186Z,0.95
2023-01-27T01:57:57.994Z,0.95
2023-01-27T02:00:25.824Z,0.93
2023-01-27T02:02:53.836Z,0.89
2023-01-27T02:05:26.089Z,0.89
2023-01-27T02:08:13.184Z,0.90
2023-01-27T02:10:40.918Z,0.91
2023-01-27T02:13:08.705Z,0.89
2023-01-27T02:15:36.504Z,0.87
2023-01-27T02:18:04.707Z,0.82
2023-01-27T02:20:47.359Z,0.80
2023-01-27T02:23:33.229Z,0.80
2023-01-27T02:26:14.609Z,0.82
2023-01-27T02:28:42.437Z,0.80
2023-01-27T02:31:10.448Z,0.79
2023-01-27T02:33:38.291Z,0.81
2023-01-27T02:36:10.956Z,0.79
2023-01-27T02:38:41.631Z,0.78
2023-01-27T02:41:32.551Z,0.77
2023-01-27T02:44:01.267Z,0.79
2023-01-27T02:46:33.609Z,0.78
2023-01-27T02:49:01.588Z,0.79
2023-01-27T02:51:29.425Z,0.80
2023-01-27T02:53:57.247Z,0.83
2023-01-27T02:56:25.533Z,0.81
2023-01-27T02:58:53.388Z,0.81
2023-01-27T03:01:21.375Z,0.79
2023-01-27T03:03:49.308Z,0.80
2023-01-27T03:06:17.378Z,0.74
2023-01-27T03:08:45.257Z,0.74
2023-01-27T03:11:13.335Z,0.72
2023-01-27T03:13:41.316Z,0.66
2023-01-27T03:16:27.649Z,0.65
2023-01-27T03:18:57.594Z,0.62
2023-01-27T03:21:25.479Z,0.65
2023-01-27T03:23:53.291Z,0.63
2023-01-27T03:26:21.074Z,0.64
2023-01-27T03:29:08.868Z,0.57
2023-01-27T03:31:36.743Z,0.60
2023-01-27T03:34:09.223Z,0.61
2023-01-27T03:36:55.682Z,0.57
2023-01-27T03:39:41.974Z,0.60
2023-01-27T03:42:36.004Z,0.59
2023-01-27T03:45:22.382Z,0.60
2023-01-27T03:47:50.619Z,0.56
2023-01-27T03:50:20.488Z,0.58
2023-01-27T03:53:04.226Z,0.59
2023-01-27T03:55:33.084Z,0.59
2023-01-27T03:58:19.213Z,0.60
2023-01-27T04:00:48.803Z,0.56
2023-01-27T04:03:35.041Z,0.56
2023-01-27T04:06:29.623Z,0.55
2023-01-27T04:08:57.704Z,0.52
2023-01-27T04:11:44.244Z,0.50
2023-01-27T04:14:14.361Z,0.48
2023-01-27T04:16:42.210Z,0.47
2023-01-27T04:19:10.830Z,0.44
2023-01-27T04:21:38.837Z,0.41
2023-01-27T04:24:09.823Z,0.44
2023-01-27T04:26:37.692Z,0.42
2023-01-27T04:29:05.642Z,0.42
2023-01-27T04:31:33.645Z,0.41
2023-01-27T04:34:01.543Z,0.39
2023-01-27T04:36:29.398Z,0.39
2023-01-27T04:38:57.208Z,0.39
2023-01-27T04:41:24.977Z,0.38
2023-01-27T04:43:52.750Z,0.37
2023-01-27T04:46:20.501Z,0.37
2023-01-27T04:48:48.357Z,0.37
2023-01-27T04:51:16.148Z,0.40
2023-01-27T04:53:44.924Z,0.41
2023-01-27T04:56:32.510Z,0.44
2023-01-27T04:59:05.116Z,0.43
2023-01-27T05:01:33.078Z,0.42
2023-01-27T05:04:00.936Z,0.39
2023-01-27T05:06:28.981Z,0.38
2023-01-27T05:08:56.780Z,0.37
2023-01-27T05:11:24.536Z,0.39
2023-01-27T05:13:52.374Z,0.41
2023-01-27T05:16:25.117Z,0.45
2023-01-27T05:18:53.443Z,0.45
2023-01-27T05:21:26.533Z,0.46
2023-01-27T05:23:54.340Z,0.43
2023-01-27T05:26:24.211Z,0.43
2023-01-27T05:28:52.504Z,0.42
2023-01-27T05:31:28.701Z,0.45
2023-01-27T05:33:57.009Z,0.44
2023-01-27T05:36:25.727Z,0.45
2023-01-27T05:38:55.669Z,0.45
2023-01-27T05:41:23.685Z,0.47
2023-01-27T05:43:56.188Z,0.50
2023-01-27T05:46:25.854Z,0.50
2023-01-27T05:48:56.181Z,0.51
2023-01-27T05:51:25.297Z,0.50
2023-01-27T05:53:54.003Z,0.50
2023-01-27T05:56:22.262Z,0.47
2023-01-27T05:58:50.168Z,0.49
2023-01-27T06:01:22.720Z,0.48
2023-01-27T06:03:50.576Z,0.49
2023-01-27T06:06:22.541Z,0.52
2023-01-27T06:08:50.539Z,0.51
2023-01-27T06:11:19.155Z,0.48
2023-01-27T06:13:47.263Z,0.50
2023-01-27T06:16:16.252Z,0.49
2023-01-27T06:18:44.062Z,0.50
2023-01-27T06:21:12.564Z,0.50
2023-01-27T06:23:40.649Z,0.52
2023-01-27T06:26:11.195Z,0.52
2023-01-27T06:28:39.690Z,0.50
2023-01-27T06:31:11.442Z,0.50
2023-01-27T06:33:39.377Z,0.49
2023-01-27T06:36:09.426Z,0.48
2023-01-27T06:38:37.293Z,0.50
2023-01-27T06:41:05.394Z,0.49
2023-01-27T06:43:33.213Z,0.52
2023-01-27T06:46:02.551Z,0.53
2023-01-27T06:48:32.336Z,0.54
2023-01-27T06:51:00.258Z,0.53
2023-01-27T06:53:28.232Z,0.51
2023-01-27T06:55:57.307Z,0.50
2023-01-27T06:58:25.170Z,0.51
2023-01-27T07:00:53.555Z,0.51
2023-01-27T07:03:21.467Z,0.50
2023-01-27T07:05:49.282Z,0.51
2023-01-27T07:08:17.099Z,0.51
2023-01-27T07:10:48.396Z,0.50
2023-01-27T07:13:16.335Z,0.47
2023-01-27T07:15:44.194Z,0.51
2023-01-27T07:18:13.087Z,0.52
2023-01-27T07:20:41.545Z,0.50
2023-01-27T07:23:10.439Z,0.47
2023-01-27T07:25:38.667Z,0.44
2023-01-27T07:28:07.006Z,0.45
2023-01-27T07:30:38.747Z,0.44
2023-01-27T07:33:11.553Z,0.45
2023-01-27T07:35:39.991Z,0.47
2023-01-27T07:38:08.074Z,0.49
2023-01-27T07:40:36.450Z,0.49
2023-01-27T07:43:04.300Z,0.49
2023-01-27T07:45:32.172Z,0.48
2023-01-27T07:48:07.310Z,0.50
2023-01-27T07:50:36.048Z,0.52
2023-01-27T07:53:04.796Z,0.52
2023-01-27T07:55:33.606Z,0.53
2023-01-27T07:58:01.469Z,0.52
2023-01-27T08:00:30.227Z,0.51
2023-01-27T08:02:58.959Z,0.55
2023-01-27T08:05:27.085Z,0.52
2023-01-27T08:07:57.124Z,0.54
2023-01-27T08:10:26.309Z,0.56
2023-01-27T08:12:54.179Z,0.57
2023-01-27T08:15:23.110Z,0.60
2023-01-27T08:18:00.156Z,0.58
2023-01-27T08:20:28.506Z,0.58
2023-01-27T08:22:56.407Z,0.55
2023-01-27T08:25:24.268Z,0.56
2023-01-27T08:27:52.856Z,0.58
2023-01-27T08:30:20.961Z,0.57
2023-01-27T08:32:49.134Z,0.62
2023-01-27T08:35:17.399Z,0.65
2023-01-27T08:37:47.951Z,0.70
2023-01-27T08:40:26.511Z,0.72
2023-01-27T08:42:54.428Z,1.17
2023-01-27T08:45:22.320Z,1.53
2023-01-27T08:47:53.784Z,1.81
2023-01-27T08:50:21.813Z,1.91
2023-01-27T08:52:49.764Z,1.95
2023-01-27T08:55:17.679Z,1.87
2023-01-27T08:57:45.503Z,1.69
2023-01-27T09:00:14.377Z,1.58
2023-01-27T09:02:42.595Z,1.49
2023-01-27T09:05:11.037Z,1.45
2023-01-27T09:07:38.829Z,1.40
2023-01-27T09:10:14.574Z,1.37
2023-01-27T09:12:43.844Z,1.35
2023-01-27T09:15:13.162Z,1.36
2023-01-27T09:17:41.069Z,1.34
2023-01-27T09:20:09.538Z,1.36
2023-01-27T09:22:38.461Z,1.37
2023-01-27T09:25:06.587Z,1.42
2023-01-27T09:27:39.574Z,1.37
2023-01-27T09:30:10.537Z,1.38
2023-01-27T09:32:38.676Z,1.34
2023-01-27T09:35:06.857Z,1.37
2023-01-27T09:37:35.541Z,1.38
2023-01-27T09:40:05.191Z,1.37
2023-01-27T09:42:32.853Z,1.38
2023-01-27T09:45:19.902Z,1.37
2023-01-27T09:47:52.144Z,1.40
2023-01-27T09:50:32.643Z,1.40
2023-01-27T09:53:15.178Z,1.40
2023-01-27T09:55:57.841Z,1.46
2023-01-27T09:58:57.739Z,1.50
2023-01-27T10:01:34.877Z,1.50
2023-01-27T10:04:29.278Z,1.51
2023-01-27T10:07:05.942Z,1.55
2023-01-27T10:10:04.759Z,1.60
2023-01-27T10:12:35.266Z,1.63
2023-01-27T10:15:12.568Z,1.68
2023-01-27T10:18:07.637Z,1.71
2023-01-27T10:20:37.388Z,1.69
2023-01-27T10:23:21.659Z,1.68
2023-01-27T10:26:09.759Z,1.69
2023-01-27T10:28:37.686Z,1.51
2023-01-27T10:31:38.783Z,1.45
2023-01-27T10:34:14.431Z,1.48
2023-01-27T10:37:14.923Z,1.54
2023-01-27T10:39:47.967Z,1.50
2023-01-27T10:42:27.758Z,1.52
2023-01-27T10:45:19.972Z,1.57
2023-01-27T10:48:23.953Z,1.60
2023-01-27T10:51:03.211Z,1.64
2023-01-27T10:53:41.353Z,1.63
2023-01-27T10:56:13.933Z,1.68
2023-01-27T10:59:12.350Z,1.66
2023-01-27T11:01:47.829Z,1.66
2023-01-27T11:04:37.399Z,1.67
2023-01-27T11:07:05.456Z,1.66
2023-01-27T11:09:38.742Z,1.64
2023-01-27T11:12:10.564Z,1.68
2023-01-27T11:14:52.191Z,1.68
2023-01-27T11:17:30.714Z,1.71
2023-01-27T11:20:19.277Z,1.71
2023-01-27T11:23:14.128Z,1.68
2023-01-27T11:25:47.839Z,1.68
2023-01-27T11:28:26.081Z,1.62
2023-01-27T11:31:22.922Z,1.54
2023-01-27T11:34:07.388Z,1.46
2023-01-27T11:36:35.710Z,1.36
2023-01-27T11:39:05.929Z,1.32
2023-01-27T11:41:35.136Z,1.30
2023-01-27T11:44:09.123Z,1.29
2023-01-27T11:46:37.366Z,1.25
2023-01-27T11:49:05.188Z,1.25
2023-01-27T11:51:51.191Z,1.26
2023-01-27T11:54:26.388Z,1.17
2023-01-27T11:56:54.325Z,1.13
2023-01-27T11:59:27.521Z,1.16
2023-01-27T12:01:58.365Z,1.19
2023-01-27T12:05:05.481Z,1.18
2023-01-27T12:07:36.352Z,1.24
2023-01-27T12:10:05.092Z,1.27
2023-01-27T12:12:33.033Z,1.27
2023-01-27T12:15:01.575Z,1.27
2023-01-27T12:17:36.760Z,1.29
2023-01-27T12:20:18.823Z,1.26
2023-01-27T12:22:49.540Z,1.27
2023-01-27T12:25:21.217Z,1.30
2023-01-27T12:27:53.406Z,1.31
2023-01-27T12:30:39.209Z,1.31
2023-01-27T12:33:14.485Z,1.31
2023-01-27T12:35:42.730Z,1.33
2023-01-27T12:38:16.311Z,1.30
2023-01-27T12:40:45.281Z,1.31
2023-01-27T12:43:16.713Z,1.32
2023-01-27T12:45:44.714Z,1.31
2023-01-27T12:48:15.341Z,1.28
2023-01-27T12:50:55.905Z,1.28
2023-01-27T12:53:28.929Z,1.27
2023-01-27T12:56:09.252Z,1.31
2023-01-27T12:58:41.580Z,1.33
2023-01-27T13:01:21.593Z,1.32
2023-01-27T13:03:58.389Z,1.29
2023-01-27T13:06:35.938Z,1.27
2023-01-27T13:09:03.729Z,1.28
2023-01-27T13:11:38.545Z,1.28
2023-01-27T13:14:09.572Z,1.24
2023-01-27T13:16:37.412Z,1.23
2023-01-27T13:19:19.456Z,1.22
2023-01-27T13:21:51.426Z,1.20
2023-01-27T13:24:29.569Z,1.22
2023-01-27T13:26:57.355Z,1.17
2023-01-27T13:29:29.907Z,1.17
2023-01-27T13:32:00.631Z,1.15
2023-01-27T13:34:48.774Z,1.22
2023-01-27T13:37:48.892Z,1.22
2023-01-27T13:40:23.321Z,1.21
2023-01-27T13:42:54.726Z,1.26
2023-01-27T13:45:52.614Z,1.29
2023-01-27T13:48:22.820Z,1.36
2023-01-27T13:51:18.439Z,1.38
2023-01-27T13:53:48.406Z,1.40
2023-01-27T13:56:38.338Z,1.42
2023-01-27T13:59:41.979Z,1.42
2023-01-27T14:02:47.444Z,1.41
2023-01-27T14:05:30.541Z,1.43
2023-01-27T14:08:20.910Z,1.40
2023-01-27T14:11:09.946Z,1.35
2023-01-27T14:13:59.083Z,1.31
2023-01-27T14:16:33.401Z,1.31
2023-01-27T14:19:28.370Z,1.29
2023-01-27T14:22:24.101Z,1.29
2023-01-27T14:25:22.809Z,1.31
2023-01-27T14:28:10.186Z,1.31
2023-01-27T14:30:44.000Z,1.31
2023-01-27T14:33:22.472Z,1.28
2023-01-27T14:35:57.619Z,1.29
2023-01-27T14:38:32.816Z,1.32
2023-01-27T14:41:09.633Z,1.33
2023-01-27T14:43:58.700Z,1.36
2023-01-27T14:46:43.996Z,1.34
2023-01-27T14:49:46.832Z,1.31
2023-01-27T14:52:18.285Z,1.32
2023-01-27T14:54:55.269Z,1.32
2023-01-27T14:57:32.564Z,1.32
2023-01-27T15:00:14.245Z,1.33
2023-01-27T15:02:57.589Z,1.35
2023-01-27T15:05:40.714Z,1.39
2023-01-27T15:08:15.480Z,1.41
2023-01-27T15:11:09.438Z,1.35
2023-01-27T15:13:55.720Z,1.34
2023-01-27T15:16:32.437Z,1.35
2023-01-27T15:19:03.056Z,1.33
2023-01-27T15:22:19.355Z,1.31
2023-01-27T15:24:47.130Z,1.34
2023-01-27T15:27:15.051Z,1.37
2023-01-27T15:29:42.871Z,1.35
2023-01-27T15:32:16.592Z,1.35
2023-01-27T15:34:45.545Z,1.37
2023-01-27T15:37:26.620Z,1.38
2023-01-27T15:40:03.991Z,1.35
2023-01-27T15:43:03.307Z,1.34
2023-01-27T15:45:32.905Z,1.34
2023-01-27T15:48:28.406Z,1.40
2023-01-27T15:51:06.536Z,1.40
2023-01-27T15:53:41.135Z,1.40
2023-01-27T15:56:09.195Z,1.38
2023-01-27T15:58:40.870Z,1.38
2023-01-27T16:01:11.450Z,1.35
2023-01-27T16:03:45.976Z,1.34
2023-01-27T16:06:18.263Z,1.29
2023-01-27T16:08:50.283Z,1.30
2023-01-27T16:11:30.238Z,1.28
2023-01-27T16:14:13.273Z,1.28
2023-01-27T16:16:42.126Z,1.28
2023-01-27T16:19:12.847Z,1.27
2023-01-27T16:21:40.583Z,1.27
2023-01-27T16:24:41.088Z,1.22
2023-01-27T16:27:10.072Z,1.21
2023-01-27T16:29:50.747Z,1.21
2023-01-27T16:32:23.024Z,1.20
2023-01-27T16:34:53.416Z,1.16
2023-01-27T16:37:25.717Z,1.12
2023-01-27T16:40:08.098Z,1.12
2023-01-27T16:42:38.077Z,1.05
2023-01-27T16:45:16.465Z,1.03
2023-01-27T16:47:50.488Z,1.04
2023-01-27T16:50:44.297Z,1.02
2023-01-27T16:53:23.208Z,0.98
2023-01-27T16:56:04.691Z,0.98
2023-01-27T16:58:45.605Z,1.00
2023-01-27T17:01:23.300Z,0.99
2023-01-27T17:03:51.214Z,1.02
2023-01-27T17:06:19.151Z,1.01
2023-01-27T17:08:50.158Z,0.96
2023-01-27T17:11:21.923Z,0.93
2023-01-27T17:13:54.572Z,0.92
2023-01-27T17:16:36.360Z,0.88
2023-01-27T17:19:18.136Z,0.91
2023-01-27T17:21:49.316Z,0.98
2023-01-27T17:24:21.764Z,0.95
2023-01-27T17:26:50.675Z,0.94
2023-01-27T17:29:22.783Z,0.96
2023-01-27T17:31:50.957Z,0.96
2023-01-27T17:34:22.403Z,0.98
2023-01-27T17:37:18.855Z,0.98
2023-01-27T17:39:46.973Z,0.96
2023-01-27T17:42:19.150Z,0.98
2023-01-27T17:44:47.737Z,0.97
2023-01-27T17:47:20.042Z,0.99
2023-01-27T17:49:49.594Z,0.97
2023-01-27T17:52:20.971Z,0.95
2023-01-27T17:54:48.738Z,0.98
2023-01-27T17:57:33.805Z,0.92
2023-01-27T18:00:34.045Z,0.99
2023-01-27T18:03:04.851Z,1.04
2023-01-27T18:05:34.094Z,1.05
2023-01-27T18:08:02.730Z,1.04
2023-01-27T18:10:37.927Z,1.03
2023-01-27T18:13:21.056Z,1.07
2023-01-27T18:15:49.790Z,1.05
2023-01-27T18:18:21.704Z,1.04
2023-01-27T18:20:59.186Z,1.04
2023-01-27T18:23:29.088Z,1.07
2023-01-27T18:26:08.610Z,1.06
2023-01-27T18:28:39.006Z,1.05
2023-01-27T18:31:16.689Z,1.04
2023-01-27T18:34:00.940Z,1.06
2023-01-27T18:36:36.991Z,1.01
2023-01-27T18:39:33.845Z,1.00
2023-01-27T18:42:03.181Z,0.96
2023-01-27T18:44:38.268Z,0.89
2023-01-27T18:47:18.343Z,0.88
2023-01-27T18:49:49.197Z,0.91
2023-01-27T18:52:20.478Z,0.91
2023-01-27T18:54:54.417Z,0.94
2023-01-27T18:57:25.052Z,0.95
2023-01-27T18:59:52.995Z,0.98
2023-01-27T19:02:22.628Z,0.99
2023-01-27T19:04:50.701Z,1.01
2023-01-27T19:07:20.679Z,1.02
2023-01-27T19:09:53.384Z,0.98
2023-01-27T19:12:31.898Z,1.00
2023-01-27T19:15:04.493Z,1.00
2023-01-27T19:17:37.839Z,0.99
2023-01-27T19:20:18.074Z,1.00
2023-01-27T19:22:50.546Z,1.02
2023-01-27T19:25:23.523Z,1.03
2023-01-27T19:28:06.430Z,1.02
2023-01-27T19:30:38.593Z,1.03
2023-01-27T19:33:36.157Z,0.99
2023-01-27T19:36:47.021Z,0.96
2023-01-27T19:39:16.732Z,0.93
2023-01-27T19:41:53.992Z,0.92
2023-01-27T19:44:31.791Z,0.97
2023-01-27T19:47:12.287Z,0.96
2023-01-27T19:49:50.772Z,0.99
2023-01-27T19:52:21.645Z,0.99
2023-01-27T19:54:54.474Z,0.99
2023-01-27T19:57:22.364Z,1.00
2023-01-27T19:59:54.639Z,1.04
2023-01-27T20:02:22.545Z,1.04
2023-01-27T20:04:50.414Z,1.08
2023-01-27T20:07:18.229Z,1.07
2023-01-27T20:09:46.110Z,1.02
2023-01-27T20:12:16.299Z,1.03
2023-01-27T20:14:44.572Z,1.04
2023-01-27T20:17:15.253Z,1.05
2023-01-27T20:19:43.525Z,1.03
2023-01-27T20:22:17.340Z,1.03
2023-01-27T20:24:47.006Z,1.05
2023-01-27T20:27:25.664Z,1.05
2023-01-27T20:29:56.419Z,1.03
2023-01-27T20:32:25.656Z,1.03
2023-01-27T20:35:15.970Z,1.02
2023-01-27T20:37:46.468Z,1.04
2023-01-27T20:40:16.161Z,1.04
2023-01-27T20:42:44.103Z,1.06
2023-01-27T20:45:12.354Z,1.05
2023-01-27T20:47:40.335Z,1.03
2023-01-27T20:50:10.841Z,1.01
2023-01-27T20:52:38.765Z,1.02
2023-01-27T20:55:06.979Z,1.02
2023-01-27T20:57:35.570Z,1.01
2023-01-27T21:00:03.360Z,1.01
2023-01-27T21:02:31.520Z,1.02
2023-01-27T21:04:59.444Z,1.02
2023-01-27T21:07:27.332Z,1.03
2023-01-27T21:09:56.239Z,1.05
2023-01-27T21:12:24.143Z,1.06
2023-01-27T21:14:52.136Z,1.08
2023-01-27T21:17:19.984Z,1.06
2023-01-27T21:19:48.170Z,1.07
2023-01-27T21:22:16.305Z,1.06
2023-01-27T21:24:44.472Z,1.03
2023-01-27T21:27:12.933Z,1.05
2023-01-27T21:29:42.876Z,1.05
2023-01-27T21:32:10.930Z,1.05
2023-01-27T21:34:38.775Z,1.04
2023-01-27T21:37:06.614Z,1.04
2023-01-27T21:39:34.626Z,1.10
2023-01-27T21:42:02.452Z,1.09
2023-01-27T21:44:49.350Z,1.06
2023-01-27T21:47:21.270Z,1.06
2023-01-27T21:50:05.147Z,1.08
2023-01-27T21:52:40.349Z,1.06
2023-01-27T21:55:13.216Z,1.09
2023-01-27T21:57:41.403Z,1.00
2023-01-27T22:00:11.589Z,0.99
2023-01-27T22:02:39.538Z,0.99
2023-01-27T22:05:07.809Z,1.01
2023-01-27T22:07:39.350Z,1.03
2023-01-27T22:10:08.605Z,1.03
2023-01-27T22:12:36.448Z,1.06
2023-01-27T22:15:04.492Z,1.06
2023-01-27T22:17:32.298Z,1.06
2023-01-27T22:20:00.139Z,1.07
2023-01-27T22:22:28.041Z,1.06
2023-01-27T22:24:56.012Z,1.10
2023-01-27T22:27:23.978Z,1.10
2023-01-27T22:29:51.771Z,1.10
2023-01-27T22:32:19.788Z,1.12
2023-01-27T22:34:49.000Z,1.13
2023-01-27T22:37:16.951Z,1.11
2023-01-27T22:39:44.752Z,1.15
2023-01-27T22:42:12.620Z,1.12
2023-01-27T22:44:40.512Z,1.17
2023-01-27T22:47:08.368Z,1.14
2023-01-27T22:49:36.245Z,1.14
2023-01-27T22:52:04.266Z,1.14
2023-01-27T22:54:32.085Z,1.12
2023-01-27T22:57:01.126Z,1.11
2023-01-27T22:59:29.046Z,1.11
2023-01-27T23:01:56.791Z,1.10
2023-01-27T23:04:24.671Z,1.09
2023-01-27T23:06:52.422Z,1.07
2023-01-27T23:09:20.248Z,1.10
2023-01-27T23:11:48.167Z,1.11
2023-01-27T23:14:16.055Z,1.09
2023-01-27T23:16:43.875Z,1.12
2023-01-27T23:19:14.566Z,1.10
2023-01-27T23:21:42.338Z,1.09
2023-01-27T23:24:10.168Z,1.08
2023-01-27T23:26:38.059Z,1.06
2023-01-27T23:29:19.338Z,1.07
2023-01-27T23:31:51.946Z,1.08
2023-01-27T23:34:20.037Z,1.07
2023-01-27T23:36:48.725Z,1.05
2023-01-27T23:39:17.195Z,1.09
2023-01-27T23:41:44.921Z,0.99
2023-01-27T23:44:12.740Z,0.97
2023-01-27T23:46:40.752Z,0.90
2023-01-27T23:49:09.126Z,0.93
2023-01-27T23:51:36.962Z,0.93
2023-01-27T23:54:04.882Z,0.92
2023-01-27T23:56:32.716Z,0.91
2023-01-27T23:59:00.457Z,0.91
